Time;durP1;ratioP1;P1;durP2;ratioP2;P2;SDS_P1;SDS_P2;PMS_P1;PMS_P2;Temp;Humidity;BMP_temperature;BMP_pressure;BME280_temperature;BME280_humidity;BME280_pressure;Samples;Min_cycle;Max_cycle;Signal;HPM_P1;HPM_P2
2023/12/23 00:01:23;;;;;;;1.30;0.30;;;6.60;89.10;;;;;;4954595;28;20030;-79
2023/12/23 00:03:48;;;;;;;1.48;0.32;;;6.50;88.90;;;;;;4954694;29;20042;-78
2023/12/23 00:06:14;;;;;;;5.32;3.20;;;6.60;89.30;;;;;;4954653;29;20023;-78
2023/12/23 00:08:39;;;;;;;1.05;0.40;;;6.60;88.90;;;;;;4957569;29;20032;-79
2023/12/23 00:11:06;;;;;;;3.75;0.55;;;6.50;89.40;;;;;;4958205;28;20107;-79
2023/12/23 00:13:31;;;;;;;0.80;0.30;;;6.50;89.10;;;;;;4958160;29;20038;-78
2023/12/23 00:15:57;;;;;;;1.42;0.30;;;6.50;88.70;;;;;;4958206;29;20027;-80
2023/12/23 00:18:23;;;;;;;0.93;0.17;;;6.50;88.60;;;;;;4958131;29;20034;-80
2023/12/23 00:20:48;;;;;;;1.65;0.43;;;6.50;88.20;;;;;;4958152;29;20034;-78
2023/12/23 00:23:14;;;;;;;0.50;0.30;;;6.60;88.00;;;;;;4958124;29;20122;-79
2023/12/23 00:25:40;;;;;;;2.63;0.30;;;6.60;87.80;;;;;;4958056;29;20034;-78
2023/12/23 00:28:06;;;;;;;2.58;0.35;;;6.60;88.20;;;;;;4957777;29;20023;-79
2023/12/23 00:30:31;;;;;;;2.47;0.30;;;6.60;88.20;;;;;;4940497;29;20045;-79
2023/12/23 00:32:57;;;;;;;1.67;0.38;;;6.70;88.00;;;;;;4957800;29;20023;-78
2023/12/23 00:35:23;;;;;;;0.32;0.10;;;6.60;88.40;;;;;;4957760;29;20130;-80
2023/12/23 00:37:48;;;;;;;5.18;2.63;;;6.70;87.50;;;;;;4957675;29;20055;-79
2023/12/23 00:40:14;;;;;;;45.50;23.33;;;6.60;88.00;;;;;;4957589;28;20035;-78
2023/12/23 00:42:40;;;;;;;2.03;0.70;;;6.60;88.00;;;;;;4957097;29;20043;-77
2023/12/23 00:45:06;;;;;;;15.43;9.43;;;6.60;87.80;;;;;;4957408;28;20385;-78
2023/12/23 00:47:32;;;;;;;0.47;0.20;;;6.60;87.90;;;;;;4957668;28;20392;-78
2023/12/23 00:49:58;;;;;;;0.50;0.20;;;6.50;88.00;;;;;;4957313;29;20077;-76
2023/12/23 00:52:23;;;;;;;0.93;0.50;;;6.50;88.40;;;;;;4940067;29;20027;-78
2023/12/23 00:54:49;;;;;;;0.57;0.30;;;6.50;88.00;;;;;;4957567;28;20167;-78
2023/12/23 00:57:14;;;;;;;0.50;0.10;;;6.50;88.30;;;;;;4957144;28;20043;-78
2023/12/23 00:59:40;;;;;;;0.60;0.20;;;6.50;88.50;;;;;;4957313;29;20381;-79
2023/12/23 01:02:05;;;;;;;0.52;0.30;;;6.50;87.90;;;;;;4957280;28;20031;-78
2023/12/23 01:04:31;;;;;;;0.63;0.30;;;6.60;87.30;;;;;;4957261;28;20031;-77
2023/12/23 01:06:57;;;;;;;0.47;0.30;;;6.50;87.20;;;;;;4961640;29;20038;-78
2023/12/23 01:09:22;;;;;;;3.30;0.30;;;6.60;86.60;;;;;;4956990;29;20062;-79
2023/12/23 01:11:48;;;;;;;0.68;0.22;;;6.60;86.90;;;;;;4957323;29;20032;-79
2023/12/23 01:14:13;;;;;;;1.75;0.30;;;6.60;87.00;;;;;;4957252;29;20055;-80
2023/12/23 01:16:39;;;;;;;1.73;0.45;;;6.70;86.90;;;;;;4957197;28;20062;-79
2023/12/23 01:19:04;;;;;;;1.08;0.38;;;6.70;86.50;;;;;;4955947;28;20082;-79
2023/12/23 01:21:30;;;;;;;4.90;2.25;;;6.70;86.70;;;;;;4957260;28;20059;-79
2023/12/23 01:23:56;;;;;;;1.25;0.80;;;6.60;87.60;;;;;;4957545;29;20035;-79
2023/12/23 01:26:21;;;;;;;5.47;3.13;;;6.60;87.60;;;;;;4969485;28;20023;-78
2023/12/23 01:28:47;;;;;;;5.50;1.83;;;6.50;88.00;;;;;;4958228;29;20039;-79
2023/12/23 01:31:13;;;;;;;2.35;0.70;;;6.60;88.20;;;;;;4956716;28;20027;-78
2023/12/23 01:33:38;;;;;;;4.10;2.25;;;6.50;88.20;;;;;;4956683;29;20023;-79
2023/12/23 01:36:05;;;;;;;7.75;4.03;;;6.50;88.60;;;;;;4956769;29;20046;-79
2023/12/23 01:38:33;;;;;;;2.30;0.98;;;6.50;88.50;;;;;;4956648;29;20019;-78
2023/12/23 01:40:58;;;;;;;5.13;0.80;;;6.50;88.30;;;;;;4956579;29;20031;-79
2023/12/23 01:43:24;;;;;;;0.95;0.40;;;6.50;88.70;;;;;;4956468;29;20027;-78
2023/12/23 01:45:53;;;;;;;1.08;0.20;;;6.50;88.40;;;;;;4956480;29;20499;-79
2023/12/23 01:48:22;;;;;;;2.60;0.20;;;6.50;88.00;;;;;;4956317;29;20102;-79
2023/12/23 01:50:52;;;;;;;0.52;0.28;;;6.40;88.00;;;;;;4956343;28;20043;-81
2023/12/23 01:53:17;;;;;;;0.65;0.32;;;6.50;87.90;;;;;;4956251;29;20055;-79
2023/12/23 01:55:44;;;;;;;0.40;0.22;;;6.50;88.10;;;;;;4956238;28;20063;-79
2023/12/23 01:58:09;;;;;;;1.17;0.28;;;6.50;87.70;;;;;;4938759;29;20055;-77
2023/12/23 02:00:35;;;;;;;0.88;0.35;;;6.50;87.50;;;;;;4955931;29;20042;-79
2023/12/23 02:03:02;;;;;;;1.65;0.22;;;6.50;87.90;;;;;;4955912;29;20074;-79
2023/12/23 02:05:28;;;;;;;1.63;0.40;;;6.50;87.80;;;;;;4956080;28;20031;-80
2023/12/23 02:07:53;;;;;;;0.43;0.32;;;6.40;88.00;;;;;;4955897;28;20027;-79
2023/12/23 02:10:20;;;;;;;0.65;0.30;;;6.40;87.60;;;;;;4938641;29;20050;-80
2023/12/23 02:13:05;;;;;;;0.50;0.30;;;6.40;87.70;;;;;;4955889;29;20031;-80
2023/12/23 02:15:33;;;;;;;0.40;0.13;;;6.40;86.90;;;;;;4938628;29;20058;-80
2023/12/23 02:18:00;;;;;;;1.90;0.32;;;6.40;87.90;;;;;;4955856;29;20118;-80
2023/12/23 02:20:26;;;;;;;1.25;0.30;;;6.40;87.90;;;;;;4956006;29;20019;-81
2023/12/23 02:22:52;;;;;;;0.63;0.30;;;6.40;87.10;;;;;;4955715;28;20065;-79
2023/12/23 02:25:17;;;;;;;0.30;0.20;;;6.40;87.50;;;;;;4956146;29;20051;-79
2023/12/23 02:27:50;;;;;;;0.75;0.30;;;6.40;86.90;;;;;;4956241;29;20172;-79
2023/12/23 02:30:16;;;;;;;0.10;0.10;;;6.40;87.00;;;;;;4955562;28;20054;-78
2023/12/23 02:32:42;;;;;;;0.60;0.20;;;6.30;88.10;;;;;;4955751;29;20029;-77
2023/12/23 02:35:08;;;;;;;0.38;0.20;;;6.20;88.20;;;;;;4955634;29;20393;-78
2023/12/23 02:37:34;;;;;;;0.68;0.20;;;6.30;88.20;;;;;;4955561;29;20027;-77
2023/12/23 02:40:00;;;;;;;0.10;0.10;;;6.30;88.20;;;;;;4972619;28;20105;-77
2023/12/23 02:42:25;;;;;;;2.90;0.30;;;6.20;88.80;;;;;;4974665;28;20046;-77
2023/12/23 02:44:51;;;;;;;0.70;0.20;;;6.20;88.50;;;;;;4957539;28;20018;-76
2023/12/23 02:47:17;;;;;;;0.30;0.22;;;6.20;89.10;;;;;;4974613;28;20125;-78
2023/12/23 02:49:42;;;;;;;1.35;0.30;;;6.20;89.00;;;;;;4974400;28;20189;-77
2023/12/23 02:52:08;;;;;;;0.88;0.22;;;6.20;89.10;;;;;;4974728;28;20579;-78
2023/12/23 02:54:33;;;;;;;1.20;0.17;;;6.20;89.10;;;;;;4974535;28;20472;-77
2023/12/23 02:56:59;;;;;;;0.85;0.20;;;6.20;89.00;;;;;;4974441;28;20061;-78
2023/12/23 02:59:24;;;;;;;0.57;0.22;;;6.20;88.90;;;;;;4974523;28;20042;-77
2023/12/23 03:01:50;;;;;;;0.70;0.25;;;6.10;88.70;;;;;;4974384;28;20034;-77
2023/12/23 03:04:15;;;;;;;3.70;0.40;;;6.20;89.00;;;;;;4974444;28;20444;-77
2023/12/23 03:06:41;;;;;;;0.95;0.17;;;6.20;88.80;;;;;;4957028;28;20110;-77
2023/12/23 03:09:06;;;;;;;0.98;0.25;;;6.20;88.80;;;;;;4974410;28;20081;-77
2023/12/23 03:11:32;;;;;;;0.30;0.28;;;6.20;89.00;;;;;;4974253;28;20057;-78
2023/12/23 03:13:58;;;;;;;1.17;0.30;;;6.10;88.70;;;;;;4956910;28;20483;-77
2023/12/23 03:16:23;;;;;;;0.30;0.20;;;6.10;88.80;;;;;;4974288;28;20038;-77
2023/12/23 03:18:49;;;;;;;1.48;0.22;;;6.20;88.30;;;;;;4974416;28;20557;-78
2023/12/23 03:21:14;;;;;;;0.38;0.20;;;6.30;88.60;;;;;;4974386;28;20523;-78
2023/12/23 03:23:40;;;;;;;1.02;0.32;;;6.20;88.30;;;;;;4974082;28;20081;-77
2023/12/23 03:26:09;;;;;;;0.82;0.20;;;6.30;88.50;;;;;;4974302;28;20023;-77
2023/12/23 03:28:35;;;;;;;1.23;0.25;;;6.30;88.20;;;;;;4974053;28;20031;-77
2023/12/23 03:31:00;;;;;;;1.30;0.38;;;6.30;87.80;;;;;;4974160;28;20027;-77
2023/12/23 03:33:26;;;;;;;0.90;0.22;;;6.30;86.80;;;;;;4974041;28;20475;-77
2023/12/23 03:35:52;;;;;;;0.30;0.10;;;6.30;87.10;;;;;;4974255;28;20030;-77
2023/12/23 03:38:17;;;;;;;0.17;0.10;;;6.30;87.60;;;;;;4974160;28;20107;-77
2023/12/23 03:40:43;;;;;;;0.35;0.20;;;6.20;87.70;;;;;;4974071;28;20019;-77
2023/12/23 03:43:08;;;;;;;0.38;0.20;;;6.30;87.20;;;;;;4958964;28;20030;-77
2023/12/23 03:45:34;;;;;;;0.68;0.20;;;6.30;87.50;;;;;;4977877;28;20023;-77
2023/12/23 03:47:59;;;;;;;0.28;0.20;;;6.30;87.70;;;;;;4977866;28;20450;-79
2023/12/23 03:50:25;;;;;;;0.65;0.30;;;6.20;87.90;;;;;;4977725;28;20236;-76
2023/12/23 03:52:51;;;;;;;1.98;0.22;;;6.20;87.90;;;;;;4977788;28;20419;-77
2023/12/23 03:55:16;;;;;;;0.22;0.08;;;6.20;87.60;;;;;;4977744;28;20487;-77
2023/12/23 03:57:44;;;;;;;0.90;0.28;;;6.20;88.00;;;;;;4979712;28;20058;-78
2023/12/23 04:00:10;;;;;;;1.02;0.20;;;6.20;87.70;;;;;;4977738;28;20110;-77
2023/12/23 04:02:36;;;;;;;0.73;0.20;;;6.20;88.10;;;;;;4977650;28;20461;-77
2023/12/23 04:05:03;;;;;;;0.30;0.10;;;6.30;87.80;;;;;;4977790;28;20078;-77
2023/12/23 04:07:28;;;;;;;0.68;0.10;;;6.30;87.60;;;;;;4977445;28;20019;-77
2023/12/23 04:09:54;;;;;;;1.10;0.20;;;6.30;86.90;;;;;;4977270;28;20129;-77
2023/12/23 04:12:19;;;;;;;0.38;0.20;;;6.40;87.20;;;;;;4977329;28;20127;-77
2023/12/23 04:14:45;;;;;;;0.73;0.10;;;6.40;87.00;;;;;;4977473;28;20088;-78
2023/12/23 04:17:11;;;;;;;0.40;0.10;;;6.30;87.10;;;;;;4959900;28;20023;-78
2023/12/23 04:19:37;;;;;;;0.28;0.15;;;6.40;87.00;;;;;;4977348;28;20387;-77
2023/12/23 04:22:02;;;;;;;0.30;0.05;;;6.30;87.10;;;;;;4977133;28;20034;-77
2023/12/23 04:24:28;;;;;;;1.55;0.28;;;6.30;86.50;;;;;;4977247;28;20104;-76
2023/12/23 04:26:53;;;;;;;0.20;0.20;;;6.30;86.90;;;;;;4977008;28;20026;-76
2023/12/23 04:29:19;;;;;;;1.23;0.10;;;6.30;86.40;;;;;;4977065;28;20049;-76
2023/12/23 04:31:44;;;;;;;0.10;0.00;;;6.30;86.60;;;;;;4976966;28;20051;-76
2023/12/23 04:34:10;;;;;;;1.05;0.38;;;6.30;86.50;;;;;;4959763;28;20093;-76
2023/12/23 04:36:36;;;;;;;0.88;0.20;;;6.30;86.60;;;;;;4976841;28;20026;-77
2023/12/23 04:39:05;;;;;;;0.30;0.10;;;6.20;86.70;;;;;;4976860;28;20019;-79
2023/12/23 04:41:31;;;;;;;0.93;0.30;;;6.30;86.30;;;;;;4977899;28;20054;-77
2023/12/23 04:43:57;;;;;;;0.55;0.10;;;6.40;85.70;;;;;;4978296;28;20023;-78
2023/12/23 04:46:22;;;;;;;0.20;0.10;;;6.30;85.80;;;;;;4983487;28;20098;-77
2023/12/23 04:48:48;;;;;;;0.10;0.10;;;6.30;86.00;;;;;;4976750;28;20435;-77
2023/12/23 04:51:13;;;;;;;0.93;0.10;;;6.30;85.90;;;;;;4976755;28;20034;-78
2023/12/23 04:53:39;;;;;;;0.00;0.00;;;6.40;85.00;;;;;;4975462;28;20034;-77
2023/12/23 04:56:05;;;;;;;0.43;0.00;;;6.40;85.10;;;;;;4976499;28;20073;-77
2023/12/23 04:58:30;;;;;;;0.32;0.15;;;6.30;85.00;;;;;;4976238;28;20075;-76
2023/12/23 05:00:56;;;;;;;0.10;0.00;;;6.40;84.90;;;;;;4976357;28;20027;-77
2023/12/23 05:03:21;;;;;;;0.20;0.00;;;6.40;84.80;;;;;;4976538;28;20035;-76
2023/12/23 05:05:47;;;;;;;0.50;0.10;;;6.40;84.60;;;;;;4976558;28;20019;-78
2023/12/23 05:08:16;;;;;;;0.00;0.00;;;6.30;84.30;;;;;;4976389;28;20495;-77
2023/12/23 05:10:43;;;;;;;0.32;0.15;;;6.40;84.60;;;;;;4976139;28;20086;-75
2023/12/23 05:13:09;;;;;;;0.20;0.00;;;6.40;84.30;;;;;;4976334;28;20026;-76
2023/12/23 05:15:34;;;;;;;0.10;0.10;;;6.40;84.50;;;;;;4976247;28;20027;-76
2023/12/23 05:18:00;;;;;;;0.13;0.10;;;6.40;84.40;;;;;;4958868;28;20034;-78
2023/12/23 05:20:25;;;;;;;0.45;0.17;;;6.40;84.00;;;;;;4977174;28;20027;-76
2023/12/23 05:22:51;;;;;;;0.52;0.10;;;6.40;83.30;;;;;;4978329;28;20068;-75
2023/12/23 05:25:16;;;;;;;0.25;0.00;;;6.40;84.10;;;;;;4980972;28;20027;-79
2023/12/23 05:27:42;;;;;;;0.35;0.10;;;6.40;83.40;;;;;;4976674;28;20451;-77
2023/12/23 05:30:08;;;;;;;0.13;0.10;;;6.40;83.70;;;;;;4975938;28;20035;-78
2023/12/23 05:32:34;;;;;;;0.63;0.10;;;6.50;83.90;;;;;;4978362;28;20046;-77
2023/12/23 05:34:59;;;;;;;0.03;0.00;;;6.40;83.20;;;;;;4983807;28;20062;-76
2023/12/23 05:37:25;;;;;;;0.30;0.08;;;6.40;83.10;;;;;;4975882;28;20019;-78
2023/12/23 05:39:50;;;;;;;0.40;0.10;;;6.40;83.50;;;;;;4976196;28;20106;-76
2023/12/23 05:42:16;;;;;;;0.10;0.10;;;6.40;83.30;;;;;;4975809;28;20027;-77
2023/12/23 05:44:41;;;;;;;0.20;0.10;;;6.40;83.80;;;;;;4975704;28;20030;-77
2023/12/23 05:47:07;;;;;;;0.10;0.10;;;6.40;83.80;;;;;;4976368;28;20019;-77
2023/12/23 05:49:32;;;;;;;0.40;0.10;;;6.50;82.60;;;;;;4976344;28;20043;-78
2023/12/23 05:51:58;;;;;;;0.10;0.10;;;6.50;82.40;;;;;;4976035;28;20027;-77
2023/12/23 05:54:23;;;;;;;0.75;0.10;;;6.50;82.00;;;;;;4976096;28;20109;-77
2023/12/23 05:56:49;;;;;;;0.10;0.10;;;6.50;81.70;;;;;;4977677;28;20049;-78
2023/12/23 05:59:15;;;;;;;1.08;0.10;;;6.50;81.30;;;;;;4975669;28;20030;-78
2023/12/23 06:01:40;;;;;;;1.02;0.20;;;6.50;82.00;;;;;;4975434;28;20067;-77
2023/12/23 06:04:06;;;;;;;0.52;0.20;;;6.50;81.30;;;;;;4975417;28;20096;-77
2023/12/23 06:06:31;;;;;;;0.10;0.10;;;6.50;81.40;;;;;;4975069;28;20035;-78
2023/12/23 06:08:57;;;;;;;0.28;0.10;;;6.50;82.30;;;;;;4975432;28;20482;-78
2023/12/23 06:11:23;;;;;;;0.57;0.17;;;6.50;82.20;;;;;;4975339;28;20023;-77
2023/12/23 06:13:48;;;;;;;0.00;0.00;;;6.50;82.60;;;;;;4975310;28;20476;-77
2023/12/23 06:16:14;;;;;;;0.30;0.20;;;6.50;81.00;;;;;;4957282;28;20030;-78
2023/12/23 06:18:40;;;;;;;0.52;0.10;;;6.50;81.60;;;;;;4975100;28;20022;-78
2023/12/23 06:21:05;;;;;;;0.20;0.10;;;6.50;81.70;;;;;;4957895;28;20041;-77
2023/12/23 06:23:31;;;;;;;1.08;0.20;;;6.50;81.90;;;;;;4975057;28;20023;-77
2023/12/23 06:25:57;;;;;;;0.10;0.10;;;6.50;82.20;;;;;;4974883;28;20031;-77
2023/12/23 06:28:22;;;;;;;0.45;0.20;;;6.50;82.20;;;;;;4974901;28;20383;-77
2023/12/23 06:30:48;;;;;;;1.38;0.20;;;6.50;82.60;;;;;;4974575;28;20391;-77
2023/12/23 06:33:14;;;;;;;0.80;0.10;;;6.50;82.50;;;;;;4974897;28;20033;-76
2023/12/23 06:35:39;;;;;;;0.40;0.10;;;6.50;83.10;;;;;;4974643;28;20097;-76
2023/12/23 06:38:05;;;;;;;1.35;0.10;;;6.50;82.60;;;;;;4974757;28;20037;-77
2023/12/23 06:40:30;;;;;;;0.10;0.10;;;6.50;82.70;;;;;;4974772;28;20098;-77
2023/12/23 06:42:56;;;;;;;0.35;0.00;;;6.50;82.60;;;;;;4974560;28;20463;-78
2023/12/23 06:45:22;;;;;;;0.20;0.20;;;6.50;82.70;;;;;;4975012;28;20027;-77
2023/12/23 06:47:47;;;;;;;1.05;0.15;;;6.50;82.30;;;;;;4974786;28;20069;-76
2023/12/23 06:50:13;;;;;;;0.20;0.20;;;6.50;82.50;;;;;;4976286;28;20043;-78
2023/12/23 06:52:39;;;;;;;0.63;0.40;;;6.50;82.60;;;;;;4975130;28;20046;-76
2023/12/23 06:55:04;;;;;;;0.40;0.25;;;6.60;82.30;;;;;;4974802;28;20031;-76
2023/12/23 06:57:30;;;;;;;0.30;0.30;;;6.50;82.30;;;;;;4975161;28;20576;-76
2023/12/23 06:59:58;;;;;;;0.30;0.25;;;6.50;82.20;;;;;;4974525;28;20077;-77
2023/12/23 07:02:24;;;;;;;0.35;0.30;;;6.50;81.90;;;;;;4974551;28;20027;-77
2023/12/23 07:04:50;;;;;;;0.20;0.15;;;6.50;82.30;;;;;;4974168;28;20365;-78
2023/12/23 07:07:15;;;;;;;1.08;0.30;;;6.50;82.60;;;;;;4974499;28;20031;-76
2023/12/23 07:09:41;;;;;;;0.08;0.08;;;6.60;82.70;;;;;;4974260;28;20026;-76
2023/12/23 07:12:08;;;;;;;0.17;0.10;;;6.60;82.80;;;;;;4974452;28;20038;-77
2023/12/23 07:14:33;;;;;;;0.10;0.10;;;6.60;83.10;;;;;;4957367;28;20364;-77
2023/12/23 07:16:59;;;;;;;1.13;0.20;;;6.60;83.40;;;;;;4973501;28;20038;-75
2023/12/23 07:19:25;;;;;;;0.82;0.25;;;6.60;83.50;;;;;;4974209;28;20077;-77
2023/12/23 07:21:53;;;;;;;1.55;0.98;;;6.50;84.00;;;;;;4974183;28;20112;-76
2023/12/23 07:24:19;;;;;;;0.70;0.68;;;6.50;84.30;;;;;;4974516;28;20062;-79
2023/12/23 07:26:45;;;;;;;3.22;0.40;;;6.50;84.20;;;;;;4974120;28;20030;-79
2023/12/23 07:29:11;;;;;;;0.47;0.30;;;6.50;84.20;;;;;;4974194;28;20361;-78
2023/12/23 07:31:36;;;;;;;0.90;0.30;;;6.50;84.00;;;;;;4974288;28;20102;-76
2023/12/23 07:34:03;;;;;;;0.30;0.30;;;6.50;83.80;;;;;;4973930;28;20030;-77
2023/12/23 07:36:28;;;;;;;0.20;0.10;;;6.50;84.00;;;;;;4974281;28;20015;-76
2023/12/23 07:38:54;;;;;;;2.83;0.30;;;6.60;83.40;;;;;;4974130;28;20388;-76
2023/12/23 07:41:19;;;;;;;0.28;0.20;;;6.60;83.20;;;;;;4973900;28;20035;-77
2023/12/23 07:43:45;;;;;;;0.75;0.20;;;6.50;84.20;;;;;;4956779;28;20097;-78
2023/12/23 07:46:11;;;;;;;0.20;0.20;;;6.50;83.80;;;;;;4973997;28;20022;-77
2023/12/23 07:48:37;;;;;;;0.32;0.32;;;6.50;84.90;;;;;;4974219;28;20034;-78
2023/12/23 07:51:06;;;;;;;0.10;0.10;;;6.50;83.90;;;;;;4974031;28;20031;-77
2023/12/23 07:53:32;;;;;;;0.40;0.20;;;6.50;83.10;;;;;;4957824;28;20019;-77
2023/12/23 07:56:06;;;;;;;0.32;0.30;;;6.60;82.60;;;;;;4980726;28;20038;-80
2023/12/23 07:58:31;;;;;;;0.82;0.50;;;6.60;82.50;;;;;;4975633;28;20047;-77
2023/12/23 08:00:57;;;;;;;0.68;0.50;;;6.60;82.70;;;;;;4974912;28;20034;-76
2023/12/23 08:03:22;;;;;;;0.85;0.50;;;6.60;82.80;;;;;;4975511;28;20400;-79
2023/12/23 08:05:48;;;;;;;0.55;0.30;;;6.60;82.70;;;;;;4958209;28;20059;-75
2023/12/23 08:08:14;;;;;;;0.40;0.35;;;6.60;83.10;;;;;;4958132;28;20026;-75
2023/12/23 08:10:39;;;;;;;0.20;0.20;;;6.60;83.50;;;;;;4977540;28;20044;-78
2023/12/23 08:13:06;;;;;;;0.80;0.50;;;6.60;83.80;;;;;;4959345;28;20527;-78
2023/12/23 08:15:32;;;;;;;1.70;0.50;;;6.60;84.50;;;;;;4959250;28;20033;-81
2023/12/23 08:17:57;;;;;;;0.98;0.38;;;6.50;85.80;;;;;;4956678;28;20023;-75
2023/12/23 08:20:23;;;;;;;0.50;0.40;;;6.50;86.40;;;;;;4973444;28;20531;-77
2023/12/23 08:22:48;;;;;;;0.82;0.47;;;6.50;85.00;;;;;;4973430;28;20027;-75
2023/12/23 08:25:15;;;;;;;0.45;0.13;;;6.60;85.00;;;;;;4956305;28;20062;-76
2023/12/23 08:27:40;;;;;;;0.35;0.20;;;6.60;83.50;;;;;;4973898;28;20483;-76
2023/12/23 08:30:08;;;;;;;1.67;1.02;;;6.70;84.00;;;;;;4977103;28;20175;-77
2023/12/23 08:32:34;;;;;;;2.22;0.50;;;6.70;83.50;;;;;;4959907;28;20046;-76
2023/12/23 08:35:00;;;;;;;1.63;0.40;;;6.70;83.60;;;;;;4977019;28;20035;-76
2023/12/23 08:37:25;;;;;;;0.40;0.30;;;6.70;82.60;;;;;;4977057;28;20023;-77
2023/12/23 08:39:51;;;;;;;1.00;0.50;;;6.70;82.30;;;;;;4977105;28;20114;-75
2023/12/23 08:42:17;;;;;;;0.98;0.20;;;6.70;83.30;;;;;;4976746;28;20019;-76
2023/12/23 08:44:42;;;;;;;0.43;0.40;;;6.70;82.40;;;;;;4976694;28;20089;-75
2023/12/23 08:47:08;;;;;;;2.33;0.40;;;6.70;83.90;;;;;;4976733;28;20476;-74
2023/12/23 08:49:38;;;;;;;0.65;0.40;;;6.80;82.60;;;;;;4976476;28;20535;-74
2023/12/23 08:52:03;;;;;;;0.95;0.30;;;6.80;82.10;;;;;;4960347;28;20027;-73
2023/12/23 08:54:29;;;;;;;1.75;0.30;;;6.80;82.00;;;;;;4977498;28;20050;-74
2023/12/23 08:56:55;;;;;;;2.00;0.60;;;6.70;82.20;;;;;;4959952;28;20065;-75
2023/12/23 08:59:20;;;;;;;0.77;0.43;;;6.70;81.50;;;;;;4959642;28;20066;-74
2023/12/23 09:01:46;;;;;;;0.30;0.30;;;6.70;82.50;;;;;;4959316;28;20510;-77
2023/12/23 09:04:11;;;;;;;1.00;0.30;;;6.80;81.60;;;;;;4959188;28;20387;-76
2023/12/23 09:06:38;;;;;;;0.47;0.20;;;6.80;80.80;;;;;;4959140;28;20066;-78
2023/12/23 09:09:03;;;;;;;0.30;0.20;;;6.80;80.50;;;;;;4959257;28;20026;-77
2023/12/23 09:11:29;;;;;;;0.40;0.30;;;6.90;80.70;;;;;;4976480;28;20034;-76
2023/12/23 09:13:54;;;;;;;0.32;0.30;;;6.90;81.10;;;;;;4976488;28;20165;-76
2023/12/23 09:16:21;;;;;;;1.10;0.68;;;6.90;80.80;;;;;;4976556;28;20042;-76
2023/12/23 09:18:46;;;;;;;0.95;0.50;;;7.00;81.30;;;;;;4976372;28;20408;-77
2023/12/23 09:21:12;;;;;;;0.10;0.10;;;6.90;81.20;;;;;;4976542;28;20023;-78
2023/12/23 09:23:37;;;;;;;1.50;0.50;;;6.90;80.60;;;;;;4959283;28;20338;-76
2023/12/23 09:26:03;;;;;;;0.68;0.60;;;7.00;80.80;;;;;;4976433;28;20050;-76
2023/12/23 09:28:29;;;;;;;0.80;0.60;;;7.00;80.90;;;;;;4958785;28;20046;-76
2023/12/23 09:30:54;;;;;;;0.73;0.38;;;7.00;80.60;;;;;;4958726;28;20039;-75
2023/12/23 09:33:20;;;;;;;0.32;0.30;;;7.10;80.40;;;;;;4976154;28;20084;-76
2023/12/23 09:35:45;;;;;;;0.43;0.15;;;7.10;80.20;;;;;;4976431;28;20031;-75
2023/12/23 09:38:11;;;;;;;0.20;0.20;;;7.00;80.10;;;;;;4978731;28;20053;-76
2023/12/23 09:40:37;;;;;;;1.48;0.28;;;7.00;80.70;;;;;;4958130;28;20388;-76
2023/12/23 09:43:04;;;;;;;0.47;0.30;;;7.00;80.40;;;;;;4981020;28;20027;-75
2023/12/23 09:45:32;;;;;;;0.32;0.20;;;7.00;80.80;;;;;;4975776;28;20193;-76
2023/12/23 09:47:58;;;;;;;0.38;0.30;;;6.90;80.40;;;;;;4975668;28;20031;-76
2023/12/23 09:50:24;;;;;;;0.75;0.30;;;6.90;80.60;;;;;;4958053;28;20035;-75
2023/12/23 09:52:54;;;;;;;0.82;0.22;;;6.90;81.00;;;;;;4958653;28;20365;-77
2023/12/23 09:55:23;;;;;;;1.65;0.40;;;6.80;80.80;;;;;;4942566;28;20042;-77
2023/12/23 09:57:49;;;;;;;0.70;0.40;;;6.80;81.20;;;;;;4975624;28;20047;-75
2023/12/23 10:00:15;;;;;;;1.10;0.40;;;6.90;80.90;;;;;;4975877;28;20027;-76
2023/12/23 10:02:41;;;;;;;0.30;0.20;;;6.90;81.20;;;;;;4975395;28;20025;-77
2023/12/23 10:05:07;;;;;;;0.75;0.43;;;6.80;80.80;;;;;;4958172;28;20062;-75
2023/12/23 10:07:33;;;;;;;1.65;0.57;;;6.80;81.20;;;;;;4975307;28;20019;-77
2023/12/23 10:09:58;;;;;;;0.90;0.60;;;6.80;81.70;;;;;;4958032;28;20448;-76
2023/12/23 10:12:24;;;;;;;1.63;0.40;;;6.90;81.60;;;;;;4958421;28;20023;-76
2023/12/23 10:14:52;;;;;;;0.60;0.60;;;7.00;81.00;;;;;;4957963;28;20104;-77
2023/12/23 10:17:17;;;;;;;0.95;0.57;;;7.00;81.00;;;;;;4958141;28;20384;-74
2023/12/23 10:19:46;;;;;;;0.65;0.40;;;7.00;81.30;;;;;;4975050;28;20030;-74
2023/12/23 10:22:11;;;;;;;0.82;0.40;;;6.90;80.90;;;;;;4957727;28;20066;-77
2023/12/23 10:24:38;;;;;;;0.85;0.70;;;6.90;80.90;;;;;;4957638;28;20050;-77
2023/12/23 10:27:05;;;;;;;2.58;1.55;;;6.90;81.50;;;;;;4974251;28;20042;-76
2023/12/23 10:29:35;;;;;;;0.93;0.40;;;6.90;81.90;;;;;;4957686;28;20138;-76
2023/12/23 10:32:05;;;;;;;0.35;0.35;;;6.90;81.50;;;;;;4974999;28;20043;-77
2023/12/23 10:34:44;;;;;;;0.47;0.17;;;6.90;81.90;;;;;;4975237;28;20101;-77
2023/12/23 10:37:15;;;;;;;1.60;0.20;;;6.80;82.20;;;;;;4957871;28;20492;-77
2023/12/23 10:39:51;;;;;;;0.20;0.20;;;6.90;81.80;;;;;;4940848;29;20027;-77
2023/12/23 10:42:23;;;;;;;0.50;0.30;;;6.90;82.30;;;;;;4920967;29;20023;-75
2023/12/23 10:44:51;;;;;;;0.35;0.25;;;6.70;82.60;;;;;;4919689;29;20027;-75
2023/12/23 10:47:17;;;;;;;0.45;0.30;;;6.90;83.30;;;;;;4936347;29;20107;-77
2023/12/23 10:49:45;;;;;;;0.50;0.32;;;6.90;82.00;;;;;;4936273;29;20115;-75
2023/12/23 10:52:14;;;;;;;0.70;0.20;;;6.90;83.60;;;;;;4935939;29;20030;-76
2023/12/23 10:54:43;;;;;;;0.55;0.10;;;7.00;83.20;;;;;;4927249;29;20031;-74
2023/12/23 10:57:10;;;;;;;0.45;0.20;;;7.00;81.00;;;;;;4940212;29;20071;-75
2023/12/23 10:59:37;;;;;;;0.20;0.20;;;6.90;81.70;;;;;;4954109;29;20103;-76
2023/12/23 11:02:13;;;;;;;1.10;0.35;;;6.90;82.30;;;;;;4937409;29;20114;-75
2023/12/23 11:04:42;;;;;;;0.20;0.20;;;6.90;82.40;;;;;;4952698;29;20019;-75
2023/12/23 11:07:11;;;;;;;0.75;0.40;;;6.90;82.60;;;;;;4954461;29;20134;-75
2023/12/23 11:09:38;;;;;;;1.30;0.30;;;6.90;81.70;;;;;;4934928;29;20038;-76
2023/12/23 11:12:05;;;;;;;0.55;0.40;;;6.80;82.00;;;;;;4954392;28;20075;-76
2023/12/23 11:14:31;;;;;;;0.73;0.60;;;6.80;81.40;;;;;;4937151;29;20031;-77
2023/12/23 11:16:57;;;;;;;1.48;0.50;;;6.80;81.60;;;;;;4936699;29;20108;-76
2023/12/23 11:19:24;;;;;;;1.08;0.40;;;6.80;82.10;;;;;;4954386;28;20380;-75
2023/12/23 11:22:19;;;;;;;0.85;0.40;;;6.80;81.10;;;;;;4937381;29;20026;-76
2023/12/23 11:24:44;;;;;;;0.85;0.20;;;6.80;81.90;;;;;;4936926;29;20016;-76
2023/12/23 11:27:29;;;;;;;0.20;0.20;;;6.80;80.70;;;;;;4936963;29;20039;-76
2023/12/23 11:29:58;;;;;;;0.28;0.20;;;6.90;80.00;;;;;;4933056;29;20035;-76
2023/12/23 11:32:33;;;;;;;0.50;0.20;;;6.90;80.10;;;;;;4954277;29;20417;-77
2023/12/23 11:35:00;;;;;;;0.28;0.22;;;7.00;78.80;;;;;;4936985;29;20126;-77
2023/12/23 11:37:52;;;;;;;0.68;0.30;;;6.90;79.10;;;;;;4936891;29;20023;-75
2023/12/23 11:40:19;;;;;;;0.20;0.10;;;7.00;79.10;;;;;;4953105;29;20473;-75
2023/12/23 11:42:46;;;;;;;0.20;0.20;;;7.00;78.10;;;;;;4960749;28;20029;-76
2023/12/23 11:45:12;;;;;;;0.57;0.40;;;7.10;78.50;;;;;;4973422;28;20476;-74
2023/12/23 11:47:39;;;;;;;0.77;0.30;;;7.10;78.50;;;;;;4956723;28;20038;-77
2023/12/23 11:50:05;;;;;;;0.47;0.20;;;7.20;78.00;;;;;;4956199;28;20373;-77
2023/12/23 11:52:31;;;;;;;0.77;0.08;;;7.20;78.00;;;;;;4956361;28;20027;-76
2023/12/23 11:54:57;;;;;;;0.93;0.30;;;7.30;77.10;;;;;;4956339;28;20074;-77
2023/12/23 11:57:22;;;;;;;0.80;0.30;;;7.10;78.50;;;;;;4955979;28;20101;-75
2023/12/23 11:59:49;;;;;;;0.35;0.35;;;7.20;78.10;;;;;;4956395;28;20029;-75
2023/12/23 12:02:15;;;;;;;0.57;0.40;;;7.20;77.90;;;;;;4973649;28;20134;-76
2023/12/23 12:04:40;;;;;;;0.65;0.10;;;7.20;78.00;;;;;;4976647;28;20492;-75
2023/12/23 12:07:06;;;;;;;0.28;0.20;;;7.30;77.50;;;;;;4977005;28;20069;-75
2023/12/23 12:09:32;;;;;;;0.57;0.40;;;7.20;77.50;;;;;;4943459;28;20392;-75
2023/12/23 12:11:59;;;;;;;0.30;0.30;;;7.10;78.20;;;;;;4959311;28;20023;-76
2023/12/23 12:14:26;;;;;;;0.22;0.20;;;7.10;78.90;;;;;;4959973;28;20027;-76
2023/12/23 12:16:53;;;;;;;1.20;0.30;;;7.20;77.30;;;;;;4959979;28;20472;-76
2023/12/23 12:19:19;;;;;;;0.20;0.20;;;7.20;77.20;;;;;;4977240;28;20035;-77
2023/12/23 12:21:45;;;;;;;0.43;0.20;;;7.30;77.10;;;;;;4961922;28;20466;-76
2023/12/23 12:24:11;;;;;;;0.40;0.20;;;7.30;75.80;;;;;;4959412;28;20031;-76
2023/12/23 12:26:37;;;;;;;0.20;0.20;;;7.40;76.30;;;;;;4959063;28;20030;-77
2023/12/23 12:29:03;;;;;;;0.55;0.40;;;7.40;76.50;;;;;;4959474;28;20417;-76
2023/12/23 12:31:32;;;;;;;0.40;0.17;;;7.40;77.10;;;;;;4943512;28;20117;-75
2023/12/23 12:33:58;;;;;;;0.38;0.20;;;7.50;76.70;;;;;;4959182;28;20019;-77
2023/12/23 12:36:26;;;;;;;0.30;0.20;;;7.50;76.10;;;;;;4959592;28;20472;-77
2023/12/23 12:38:53;;;;;;;0.73;0.28;;;7.50;76.30;;;;;;4976521;28;20387;-75
2023/12/23 12:41:19;;;;;;;0.75;0.25;;;7.50;76.60;;;;;;4976807;28;20031;-76
2023/12/23 12:43:44;;;;;;;0.25;0.10;;;7.40;75.60;;;;;;4959336;28;20365;-76
2023/12/23 12:46:14;;;;;;;1.55;0.10;;;7.50;76.00;;;;;;4959689;28;20046;-74
2023/12/23 12:48:40;;;;;;;1.15;0.35;;;7.40;77.00;;;;;;4976116;28;20054;-75
2023/12/23 12:51:07;;;;;;;0.30;0.30;;;7.30;79.00;;;;;;4976051;28;20030;-76
2023/12/23 12:53:33;;;;;;;0.63;0.32;;;7.20;79.90;;;;;;4958788;28;20043;-76